Time;durP1;ratioP1;P1;durP2;ratioP2;P2;SDS_P1;SDS_P2;PMS_P1;PMS_P2;Temp;Humidity;BMP_temperature;BMP_pressure;BME280_temperature;BME280_humidity;BME280_pressure;Samples;Min_cycle;Max_cycle;Signal;HPM_P1;HPM_P2
2022/11/08 00:02:37;;;;;;;4.13;0.70;;;29.50;54.50;;;;;;5031892;28;20045;-57
2022/11/08 00:16:06;;;;;;;8.52;0.80;;;27.90;55.70;;;;;;5030111;28;20079;-62
2022/11/08 00:18:33;;;;;;;2.67;0.82;;;28.00;57.30;;;;;;5027504;28;20033;-61
2022/11/08 00:21:04;;;;;;;6.80;1.00;;;27.90;55.50;;;;;;5037093;28;20026;-61
2022/11/08 00:23:31;;;;;;;3.60;0.63;;;28.40;53.00;;;;;;5040941;28;20029;-61
2022/11/08 00:25:58;;;;;;;4.30;0.85;;;28.10;54.00;;;;;;5042238;28;20033;-62
2022/11/08 00:28:25;;;;;;;2.30;0.60;;;27.70;53.50;;;;;;5037743;28;20018;-61
2022/11/08 00:30:53;;;;;;;2.13;0.50;;;26.80;55.00;;;;;;5035672;28;20029;-61
2022/11/08 00:33:20;;;;;;;4.63;0.63;;;26.20;55.60;;;;;;5032928;28;20088;-62
2022/11/08 00:35:47;;;;;;;4.45;0.80;;;26.10;57.60;;;;;;5043001;28;20045;-62
2022/11/08 00:38:14;;;;;;;3.67;0.70;;;25.80;57.40;;;;;;5040492;28;20029;-62
2022/11/08 00:40:41;;;;;;;6.38;1.10;;;25.30;56.40;;;;;;5036791;28;20021;-62
2022/11/08 00:43:09;;;;;;;8.25;0.90;;;25.60;57.70;;;;;;5033831;28;20413;-62
2022/11/08 00:45:36;;;;;;;2.53;0.85;;;26.10;57.30;;;;;;5038551;28;20033;-62
2022/11/08 00:48:03;;;;;;;5.35;0.98;;;26.70;57.90;;;;;;5051251;28;20025;-62
2022/11/08 00:50:30;;;;;;;2.97;0.73;;;27.00;54.60;;;;;;5038805;28;20025;-62
2022/11/08 00:52:58;;;;;;;3.30;0.75;;;27.00;56.40;;;;;;5024842;28;20049;-62
2022/11/08 00:55:25;;;;;;;3.45;0.50;;;26.60;54.60;;;;;;5028921;28;20564;-63
2022/11/08 00:57:52;;;;;;;3.38;0.70;;;26.70;55.50;;;;;;5032100;28;20128;-61
2022/11/08 01:00:22;;;;;;;2.17;0.55;;;26.60;54.80;;;;;;5026286;28;20050;-61
2022/11/08 01:03:17;;;;;;;3.17;0.63;;;26.70;54.80;;;;;;5023491;28;20026;-62
2022/11/08 01:05:40;;;;;;;1.33;0.50;;;26.00;54.90;;;;;;5023411;28;20064;-62
2022/11/08 01:08:08;;;;;;;2.08;0.50;;;25.40;57.40;;;;;;5037686;28;20044;-63
2022/11/08 01:10:35;;;;;;;6.38;0.95;;;25.60;55.50;;;;;;5031581;28;20033;-64
2022/11/08 01:13:03;;;;;;;10.55;0.85;;;25.70;56.90;;;;;;5047965;28;20032;-63
2022/11/08 01:15:35;;;;;;;4.57;1.02;;;25.50;55.40;;;;;;5030796;28;20044;-63
2022/11/08 01:18:03;;;;;;;3.10;0.70;;;25.30;57.50;;;;;;5037683;28;20584;-63
2022/11/08 01:20:31;;;;;;;1.67;0.55;;;25.30;57.60;;;;;;5040238;28;20040;-63
2022/11/08 01:22:58;;;;;;;3.10;0.88;;;25.20;58.10;;;;;;5034076;28;20029;-62
2022/11/08 01:25:25;;;;;;;4.40;0.60;;;24.90;57.60;;;;;;5035774;28;20193;-62
2022/11/08 01:27:53;;;;;;;2.88;0.63;;;25.20;58.80;;;;;;5047983;28;20397;-62
2022/11/08 01:30:20;;;;;;;4.88;0.75;;;25.60;58.30;;;;;;5038893;28;20103;-62
2022/11/08 01:32:47;;;;;;;6.15;0.90;;;26.30;57.60;;;;;;5028253;28;20036;-61
2022/11/08 01:35:14;;;;;;;3.60;0.60;;;26.60;55.30;;;;;;5044266;28;20032;-62
2022/11/08 01:37:41;;;;;;;3.70;0.65;;;27.10;54.20;;;;;;5038305;28;20017;-62
2022/11/08 01:40:09;;;;;;;1.38;0.60;;;26.70;54.50;;;;;;5029921;28;20479;-62
2022/11/08 01:42:37;;;;;;;5.13;1.55;;;27.20;54.20;;;;;;5038250;28;20074;-62
2022/11/08 01:45:08;;;;;;;4.78;0.88;;;27.60;53.60;;;;;;5031065;28;20025;-62
2022/11/08 01:47:35;;;;;;;2.90;0.60;;;27.70;53.00;;;;;;5039892;28;20032;-62
2022/11/08 01:50:14;;;;;;;5.82;0.70;;;27.70;53.30;;;;;;5032284;28;20080;-63
2022/11/08 01:52:48;;;;;;;4.15;0.70;;;27.60;52.30;;;;;;5031891;28;20103;-63
2022/11/08 01:55:35;;;;;;;4.38;0.70;;;27.10;54.10;;;;;;5031182;28;20021;-62
2022/11/08 01:58:09;;;;;;;6.15;0.75;;;27.30;53.50;;;;;;5029172;28;20025;-62
2022/11/08 02:00:37;;;;;;;3.13;0.50;;;27.80;53.10;;;;;;5022907;28;20031;-63
2022/11/08 02:03:07;;;;;;;6.80;0.75;;;28.20;51.90;;;;;;5037490;28;20030;-65
2022/11/08 02:05:35;;;;;;;3.22;0.65;;;28.50;50.70;;;;;;5037925;28;20025;-65
2022/11/08 02:08:37;;;;;;;1.65;0.57;;;28.60;50.50;;;;;;5044924;28;20448;-64
2022/11/08 02:11:05;;;;;;;3.70;0.60;;;28.90;49.50;;;;;;5049270;28;20482;-62
2022/11/08 02:13:33;;;;;;;3.60;0.73;;;28.20;49.80;;;;;;5026589;28;20061;-62
2022/11/08 02:16:01;;;;;;;3.25;0.30;;;27.30;50.30;;;;;;5024723;28;20034;-63
2022/11/08 02:18:31;;;;;;;3.47;0.82;;;26.70;51.30;;;;;;5026715;28;20026;-62
2022/11/08 02:21:20;;;;;;;1.92;0.60;;;26.50;52.90;;;;;;5024778;28;20029;-62
2022/11/08 02:23:48;;;;;;;2.60;0.50;;;26.00;53.50;;;;;;5028865;28;20025;-61
2022/11/08 02:26:25;;;;;;;7.35;0.88;;;25.90;54.50;;;;;;5037678;28;20083;-63
2022/11/08 02:28:52;;;;;;;4.35;0.68;;;25.40;55.00;;;;;;5033725;28;20091;-62
2022/11/08 02:31:20;;;;;;;3.47;0.65;;;25.00;55.50;;;;;;5028872;28;20090;-63
2022/11/08 02:33:48;;;;;;;3.97;0.50;;;24.70;57.80;;;;;;5027609;28;20029;-62
2022/11/08 02:36:23;;;;;;;3.85;0.63;;;24.90;57.70;;;;;;5032552;28;20036;-63
2022/11/08 02:38:54;;;;;;;3.22;0.70;;;25.60;58.80;;;;;;5032233;28;20112;-62
2022/11/08 02:41:22;;;;;;;3.85;0.77;;;26.20;54.00;;;;;;5029879;28;20440;-63
2022/11/08 02:43:49;;;;;;;3.00;0.80;;;26.50;55.00;;;;;;5026322;28;20108;-62
2022/11/08 02:46:17;;;;;;;5.25;0.75;;;26.90;54.80;;;;;;5024675;28;20490;-63
2022/11/08 02:48:44;;;;;;;3.22;0.60;;;27.00;54.10;;;;;;5037628;28;20053;-63
2022/11/08 02:51:11;;;;;;;4.97;0.73;;;26.80;54.10;;;;;;5027394;28;20049;-62
2022/11/08 02:53:38;;;;;;;3.42;0.80;;;26.70;53.70;;;;;;5030108;28;20041;-62
2022/11/08 02:56:06;;;;;;;4.78;0.80;;;26.70;54.30;;;;;;5042145;28;20014;-63
2022/11/08 02:58:33;;;;;;;5.03;0.90;;;26.60;53.90;;;;;;5028010;28;20560;-63
2022/11/08 03:01:00;;;;;;;5.20;1.00;;;26.60;53.30;;;;;;5026257;28;20037;-63
2022/11/08 03:03:27;;;;;;;6.82;0.82;;;26.70;54.10;;;;;;5029286;28;20018;-63
2022/11/08 03:05:56;;;;;;;3.83;0.70;;;27.00;51.20;;;;;;5034400;28;20512;-64
2022/11/08 03:08:23;;;;;;;3.85;1.40;;;26.60;52.70;;;;;;5036242;28;20056;-64
2022/11/08 03:10:51;;;;;;;2.33;0.60;;;26.50;53.40;;;;;;5026176;28;20033;-62
2022/11/08 03:13:18;;;;;;;3.80;0.65;;;26.60;54.40;;;;;;5027275;28;20056;-63
2022/11/08 03:15:45;;;;;;;2.17;0.50;;;26.60;53.10;;;;;;5026550;28;20053;-61
2022/11/08 03:18:12;;;;;;;6.32;0.63;;;26.60;54.40;;;;;;5034431;28;20055;-62
2022/11/08 03:20:40;;;;;;;7.95;0.90;;;26.70;55.30;;;;;;5045354;28;20021;-62
2022/11/08 03:23:07;;;;;;;3.03;0.60;;;26.60;53.00;;;;;;5029129;28;20063;-62
2022/11/08 03:25:35;;;;;;;5.65;1.08;;;25.80;54.00;;;;;;5026591;28;20450;-62
2022/11/08 03:28:06;;;;;;;5.00;1.00;;;25.20;55.30;;;;;;5028442;28;20040;-62
2022/11/08 03:30:34;;;;;;;2.65;0.50;;;24.80;56.00;;;;;;5028966;28;20426;-63
2022/11/08 03:33:02;;;;;;;3.80;0.85;;;25.00;56.90;;;;;;5030635;28;20485;-61
2022/11/08 03:35:30;;;;;;;3.30;0.57;;;25.50;57.70;;;;;;5030710;28;20025;-63
2022/11/08 03:37:57;;;;;;;4.03;1.10;;;26.10;56.20;;;;;;5029770;28;20022;-61
2022/11/08 03:40:25;;;;;;;3.88;0.70;;;26.60;55.00;;;;;;5037635;28;20021;-63
2022/11/08 03:42:55;;;;;;;5.40;0.50;;;26.80;52.20;;;;;;5030139;28;20091;-63
2022/11/08 03:45:23;;;;;;;2.47;0.50;;;26.60;54.80;;;;;;5028936;28;20045;-63
2022/11/08 03:47:50;;;;;;;2.28;0.65;;;27.00;53.10;;;;;;5028673;28;20057;-63
2022/11/08 03:50:17;;;;;;;2.35;0.60;;;27.10;52.40;;;;;;5029809;28;20049;-62
2022/11/08 03:52:49;;;;;;;1.88;0.80;;;27.30;53.40;;;;;;5029829;28;20099;-62
2022/11/08 03:55:18;;;;;;;3.50;0.85;;;27.30;53.50;;;;;;5030500;28;20026;-62
2022/11/08 03:57:47;;;;;;;2.28;0.68;;;27.30;53.50;;;;;;5033020;28;20017;-62
2022/11/08 04:00:17;;;;;;;5.03;1.00;;;27.40;53.80;;;;;;5032637;28;20033;-65
2022/11/08 04:02:44;;;;;;;2.70;0.55;;;27.10;52.90;;;;;;5030377;28;20021;-63
2022/11/08 04:05:13;;;;;;;4.38;1.15;;;26.80;53.10;;;;;;5030069;28;20057;-62
2022/11/08 04:07:40;;;;;;;4.72;0.77;;;26.70;53.90;;;;;;5026042;28;20041;-62
2022/11/08 04:10:09;;;;;;;4.95;0.60;;;26.80;53.80;;;;;;5026243;28;20211;-62
2022/11/08 04:15:28;;;;;;;3.00;0.60;;;26.20;54.00;;;;;;5025965;28;20099;-63
2022/11/08 04:23:30;;;;;;;3.10;0.70;;;25.40;55.80;;;;;;5030287;28;20079;-64
2022/11/08 04:26:00;;;;;;;1.15;0.55;;;25.20;57.00;;;;;;5031770;28;20627;-63
2022/11/08 04:28:32;;;;;;;5.57;0.80;;;25.20;56.80;;;;;;5029229;28;20029;-63
2022/11/08 04:31:06;;;;;;;5.80;1.23;;;25.40;56.30;;;;;;5028195;28;20025;-64
2022/11/08 04:33:33;;;;;;;4.72;0.57;;;25.60;56.70;;;;;;5029922;28;20383;-63
2022/11/08 04:36:02;;;;;;;4.00;1.15;;;25.80;55.10;;;;;;5028752;28;20033;-63
2022/11/08 04:38:31;;;;;;;4.72;0.73;;;26.00;55.40;;;;;;5029222;28;20020;-64
2022/11/08 04:41:06;;;;;;;2.10;0.70;;;26.30;55.20;;;;;;5029071;28;20057;-62
2022/11/08 04:43:33;;;;;;;4.35;0.85;;;26.40;54.50;;;;;;5030511;28;20576;-64
2022/11/08 04:46:04;;;;;;;3.30;1.50;;;26.60;54.70;;;;;;5032118;28;20041;-63
2022/11/08 04:48:31;;;;;;;3.92;0.75;;;26.40;56.60;;;;;;5028615;28;20026;-63
2022/11/08 04:51:08;;;;;;;2.38;0.70;;;26.00;54.50;;;;;;5030745;28;20096;-63
2022/11/08 04:53:36;;;;;;;4.75;0.80;;;25.90;55.80;;;;;;5028638;28;20050;-66
2022/11/08 04:56:09;;;;;;;1.42;0.50;;;25.70;56.40;;;;;;5028729;28;20438;-66
2022/11/08 04:58:39;;;;;;;6.03;0.70;;;25.20;56.30;;;;;;5026058;28;20470;-67
2022/11/08 05:01:07;;;;;;;1.65;0.95;;;24.70;57.00;;;;;;5027338;28;20440;-65
2022/11/08 05:03:35;;;;;;;6.22;0.93;;;24.20;58.30;;;;;;5030107;28;20104;-64
2022/11/08 05:06:04;;;;;;;2.03;0.93;;;24.30;59.90;;;;;;5030940;28;20033;-61
2022/11/08 05:08:32;;;;;;;5.50;1.05;;;24.40;59.70;;;;;;5032858;28;20029;-62
2022/11/08 05:11:08;;;;;;;5.38;0.60;;;24.60;58.60;;;;;;5033371;28;20025;-63
2022/11/08 05:13:36;;;;;;;3.75;0.70;;;24.60;58.60;;;;;;5028897;28;20457;-64
2022/11/08 05:16:06;;;;;;;3.33;0.65;;;24.40;59.60;;;;;;5031197;28;20053;-63
2022/11/08 05:18:34;;;;;;;1.15;0.50;;;24.10;60.90;;;;;;5029639;28;20072;-62
2022/11/08 05:23:48;;;;;;;3.10;0.75;;;24.30;60.60;;;;;;5032461;28;20032;-62
2022/11/08 05:26:17;;;;;;;4.05;1.13;;;24.40;61.00;;;;;;5039481;28;20072;-63
2022/11/08 05:28:45;;;;;;;2.40;0.50;;;24.40;60.60;;;;;;5038043;28;20039;-63
2022/11/08 05:31:13;;;;;;;3.40;0.60;;;24.40;60.70;;;;;;5034226;28;20075;-63
2022/11/08 05:33:40;;;;;;;2.97;0.68;;;24.20;61.40;;;;;;5028937;28;20030;-64
2022/11/08 05:36:13;;;;;;;1.50;0.35;;;24.50;61.30;;;;;;5024567;28;20025;-63
2022/11/08 05:38:41;;;;;;;3.70;0.90;;;24.80;59.60;;;;;;5032636;28;20018;-63
2022/11/08 05:41:12;;;;;;;1.27;0.60;;;25.00;59.60;;;;;;5031669;28;20113;-63
2022/11/08 05:43:39;;;;;;;3.35;0.80;;;25.00;58.40;;;;;;5014103;28;20009;-64
2022/11/08 05:46:07;;;;;;;2.00;0.60;;;24.70;58.70;;;;;;5037885;28;20082;-63
2022/11/08 05:48:35;;;;;;;5.53;0.60;;;24.60;60.50;;;;;;5037649;28;20029;-64
2022/11/08 05:51:02;;;;;;;3.08;0.80;;;24.80;60.50;;;;;;5041433;28;20108;-63
2022/11/08 05:53:30;;;;;;;2.15;0.52;;;25.00;60.60;;;;;;5031285;28;20045;-64
2022/11/08 05:56:04;;;;;;;4.20;0.77;;;24.50;60.00;;;;;;5028345;28;20034;-63
2022/11/08 05:58:32;;;;;;;5.07;0.70;;;24.30;61.00;;;;;;5027934;28;20541;-63
2022/11/08 06:01:20;;;;;;;1.48;0.52;;;24.40;62.30;;;;;;5029743;28;20083;-63
2022/11/08 06:03:48;;;;;;;5.05;0.93;;;24.70;61.50;;;;;;5031218;28;20067;-63
2022/11/08 06:06:20;;;;;;;3.03;0.60;;;24.70;60.70;;;;;;5029449;28;20033;-63
2022/11/08 06:08:48;;;;;;;2.38;0.77;;;24.60;60.80;;;;;;5028488;28;20114;-63
2022/11/08 06:11:22;;;;;;;3.90;0.70;;;24.50;61.30;;;;;;5044991;28;20021;-65
2022/11/08 06:13:50;;;;;;;5.53;0.68;;;24.30;63.00;;;;;;5028161;28;20033;-63
2022/11/08 06:16:19;;;;;;;2.67;0.57;;;24.20;63.10;;;;;;5020871;28;20037;-63
2022/11/08 06:18:46;;;;;;;3.35;0.52;;;24.20;62.30;;;;;;5028204;28;20033;-64
2022/11/08 06:21:16;;;;;;;3.22;0.70;;;24.40;62.90;;;;;;5030637;28;20025;-64
2022/11/08 06:23:43;;;;;;;2.58;0.68;;;24.50;62.20;;;;;;5028668;28;20052;-64
2022/11/08 06:26:11;;;;;;;3.88;0.55;;;24.50;62.00;;;;;;5028096;28;20477;-65
2022/11/08 06:28:38;;;;;;;6.22;0.80;;;24.30;63.00;;;;;;5028438;28;20438;-64
2022/11/08 06:31:06;;;;;;;4.10;0.80;;;24.40;62.60;;;;;;5024387;28;20037;-64
2022/11/08 06:33:33;;;;;;;3.67;0.90;;;24.10;62.80;;;;;;5027274;28;20025;-64
2022/11/08 06:36:01;;;;;;;7.00;0.93;;;23.80;64.80;;;;;;5024128;28;20057;-64
2022/11/08 06:38:28;;;;;;;5.75;0.80;;;23.40;65.10;;;;;;5027289;28;20469;-64
2022/11/08 06:40:59;;;;;;;2.53;0.60;;;23.20;66.00;;;;;;5025026;28;20025;-64
2022/11/08 06:43:26;;;;;;;3.42;0.60;;;23.00;65.90;;;;;;5024391;28;20035;-64
2022/11/08 06:45:54;;;;;;;3.83;0.70;;;22.80;67.00;;;;;;5025901;28;20045;-64
2022/11/08 06:48:21;;;;;;;2.55;0.68;;;22.70;66.90;;;;;;5027631;28;20021;-65
2022/11/08 06:50:48;;;;;;;6.90;0.75;;;22.60;68.20;;;;;;5030085;28;20036;-64
2022/11/08 06:53:15;;;;;;;2.28;1.48;;;22.50;68.70;;;;;;5030884;28;20336;-66
2022/11/08 06:55:42;;;;;;;4.75;0.70;;;22.40;70.00;;;;;;5024655;28;20052;-65
2022/11/08 06:58:10;;;;;;;2.20;0.68;;;22.40;70.10;;;;;;5024156;28;20100;-65
2022/11/08 07:00:38;;;;;;;3.38;0.82;;;22.30;70.30;;;;;;5027877;28;20561;-64
2022/11/08 07:03:05;;;;;;;3.72;0.80;;;22.20;71.10;;;;;;5026217;28;20083;-63
2022/11/08 07:05:34;;;;;;;1.83;0.60;;;22.20;71.90;;;;;;5038015;28;20025;-63
2022/11/08 07:08:02;;;;;;;2.63;0.90;;;22.10;72.60;;;;;;5027893;28;20096;-64
2022/11/08 07:10:31;;;;;;;3.50;0.73;;;22.10;73.60;;;;;;5037207;28;20109;-64
2022/11/08 07:13:01;;;;;;;5.35;0.80;;;22.00;74.40;;;;;;5023945;28;20025;-64
2022/11/08 07:15:29;;;;;;;2.65;1.00;;;21.80;74.70;;;;;;5026334;28;20029;-64
2022/11/08 07:18:04;;;;;;;4.15;0.55;;;21.70;74.60;;;;;;5032000;28;20192;-69
2022/11/08 07:20:32;;;;;;;6.25;0.95;;;21.60;74.80;;;;;;5041562;28;20068;-70
2022/11/08 07:22:59;;;;;;;7.38;0.63;;;21.40;75.70;;;;;;5025650;28;20029;-70
2022/11/08 07:25:28;;;;;;;5.93;1.98;;;21.30;74.90;;;;;;5040803;28;20017;-68
2022/11/08 07:28:00;;;;;;;4.72;0.73;;;21.20;75.90;;;;;;5043155;28;20101;-70
2022/11/08 07:30:28;;;;;;;10.63;3.55;;;21.20;76.40;;;;;;5029553;28;20072;-69
2022/11/08 07:32:56;;;;;;;3.60;1.55;;;21.10;77.10;;;;;;5033748;28;20389;-68
2022/11/08 07:35:24;;;;;;;5.22;0.90;;;21.10;77.50;;;;;;5031842;28;20056;-66
2022/11/08 07:37:51;;;;;;;6.07;0.90;;;21.00;77.30;;;;;;5027353;28;20029;-67
2022/11/08 07:40:19;;;;;;;3.25;0.70;;;20.90;77.60;;;;;;5033060;28;20033;-70
2022/11/08 07:42:46;;;;;;;5.15;0.70;;;20.80;78.50;;;;;;5034837;28;20026;-69
2022/11/08 07:45:13;;;;;;;2.85;1.00;;;20.70;78.60;;;;;;5021060;28;20030;-68
2022/11/08 07:47:40;;;;;;;2.97;1.33;;;20.50;78.90;;;;;;5018511;28;20112;-65
2022/11/08 07:50:08;;;;;;;4.35;1.17;;;20.50;78.10;;;;;;5019763;28;20569;-66
2022/11/08 07:52:35;;;;;;;2.55;0.77;;;20.40;75.90;;;;;;5024899;28;20417;-67
2022/11/08 07:55:03;;;;;;;1.90;0.50;;;20.40;74.40;;;;;;5024276;28;20076;-65
2022/11/08 07:57:30;;;;;;;3.38;1.05;;;20.30;74.90;;;;;;5029114;28;20028;-64
2022/11/08 07:59:57;;;;;;;1.50;0.60;;;20.20;76.60;;;;;;5031454;28;20486;-63
2022/11/08 08:02:24;;;;;;;2.65;0.60;;;20.10;77.40;;;;;;5029487;28;20017;-63
2022/11/08 08:04:51;;;;;;;4.00;0.60;;;20.00;78.00;;;;;;5029975;28;20032;-64
2022/11/08 08:07:19;;;;;;;3.15;0.55;;;19.90;78.60;;;;;;5028943;28;20041;-63
2022/11/08 08:09:46;;;;;;;3.72;0.80;;;19.80;79.00;;;;;;5032271;28;20021;-64
2022/11/08 08:12:13;;;;;;;2.45;0.50;;;19.70;80.40;;;;;;5030273;28;20037;-66
2022/11/08 08:14:40;;;;;;;3.88;0.52;;;19.60;81.70;;;;;;5031210;28;20439;-67
2022/11/08 08:17:07;;;;;;;4.18;1.33;;;19.50;82.40;;;;;;5022534;28;20029;-66
2022/11/08 08:19:35;;;;;;;2.15;0.90;;;19.40;83.30;;;;;;5032081;28;20029;-66
2022/11/08 08:22:02;;;;;;;2.63;0.60;;;19.30;84.50;;;;;;5023707;28;20037;-66
2022/11/08 08:24:29;;;;;;;3.90;0.70;;;19.20;84.70;;;;;;5039736;28;20116;-66
2022/11/08 08:26:57;;;;;;;1.73;0.60;;;19.10;85.80;;;;;;5028156;28;20283;-66
2022/11/08 08:29:24;;;;;;;7.90;1.45;;;19.00;86.50;;;;;;5029711;28;20060;-66
2022/11/08 08:31:51;;;;;;;3.78;0.63;;;18.90;87.60;;;;;;5031198;28;20033;-65
2022/11/08 08:34:18;;;;;;;4.22;1.05;;;18.90;88.40;;;;;;5025754;28;20017;-65
2022/11/08 08:36:46;;;;;;;3.40;0.50;;;18.70;89.00;;;;;;5042128;28;20029;-65
2022/11/08 08:39:13;;;;;;;2.50;0.75;;;18.60;90.20;;;;;;5033276;28;20079;-64
2022/11/08 08:41:40;;;;;;;2.92;0.40;;;18.50;90.60;;;;;;5033513;28;20063;-59
2022/11/08 08:44:07;;;;;;;2.72;0.70;;;18.40;90.90;;;;;;5018804;28;20098;-57
2022/11/08 08:46:34;;;;;;;5.22;0.80;;;18.30;91.20;;;;;;5036754;28;20142;-59
2022/11/08 08:49:02;;;;;;;5.53;0.65;;;18.30;92.00;;;;;;5046015;28;20854;-60
2022/11/08 08:51:29;;;;;;;1.58;0.60;;;18.20;92.20;;;;;;5030347;28;20021;-60
2022/11/08 08:53:57;;;;;;;2.38;0.68;;;18.20;92.80;;;;;;5043146;28;20500;-60
2022/11/08 08:56:24;;;;;;;2.55;0.60;;;18.20;92.80;;;;;;5038901;28;20028;-59
2022/11/08 08:58:51;;;;;;;7.22;1.25;;;18.30;93.30;;;;;;5034439;28;20508;-60
2022/11/08 09:01:19;;;;;;;4.13;0.43;;;18.20;93.40;;;;;;5040118;28;20069;-61
2022/11/08 09:03:46;;;;;;;1.67;0.40;;;18.20;93.80;;;;;;5029490;28;20597;-60
2022/11/08 09:06:13;;;;;;;2.97;0.70;;;18.20;93.80;;;;;;5041207;28;20421;-59
2022/11/08 09:08:40;;;;;;;3.58;0.63;;;18.20;93.80;;;;;;5036607;28;20013;-60
2022/11/08 09:11:07;;;;;;;1.83;0.45;;;18.10;94.40;;;;;;5034953;28;20033;-60
2022/11/08 09:13:35;;;;;;;2.25;0.85;;;18.10;94.50;;;;;;5030596;28;20362;-60
2022/11/08 09:16:02;;;;;;;5.43;0.85;;;18.10;94.50;;;;;;5030774;28;20022;-59
2022/11/08 09:18:31;;;;;;;4.05;0.60;;;18.00;94.70;;;;;;5035227;28;20378;-60
2022/11/08 09:20:59;;;;;;;4.07;0.80;;;18.00;95.00;;;;;;5032056;28;20029;-62
2022/11/08 09:23:26;;;;;;;2.63;1.10;;;17.90;95.00;;;;;;5037898;28;20029;-61
2022/11/08 09:25:58;;;;;;;2.20;0.50;;;18.00;95.20;;;;;;5027247;28;20132;-61
2022/11/08 09:28:26;;;;;;;2.83;0.50;;;17.90;95.60;;;;;;5030432;28;20094;-60
2022/11/08 09:30:55;;;;;;;3.70;0.57;;;17.90;95.60;;;;;;5030661;28;20504;-62
2022/11/08 09:33:22;;;;;;;8.23;0.82;;;17.90;95.90;;;;;;5029402;28;20037;-61
2022/11/08 09:35:52;;;;;;;3.10;0.60;;;18.00;95.80;;;;;;5026063;28;20116;-61
2022/11/08 09:38:20;;;;;;;6.30;0.60;;;18.00;95.80;;;;;;5028009;28;20033;-61
2022/11/08 09:41:21;;;;;;;2.67;0.70;;;18.00;95.80;;;;;;5024956;28;20490;-61
2022/11/08 09:44:07;;;;;;;4.93;1.08;;;18.00;96.00;;;;;;5024010;28;20043;-61
2022/11/08 09:46:45;;;;;;;4.68;0.80;;;18.00;96.30;;;;;;5023759;28;20475;-61
2022/11/08 09:49:35;;;;;;;3.42;0.95;;;18.00;96.30;;;;;;5026066;28;20116;-61
2022/11/08 09:52:04;;;;;;;2.05;0.90;;;18.00;96.40;;;;;;5015454;28;20053;-62
2022/11/08 09:54:37;;;;;;;9.38;1.33;;;17.90;96.60;;;;;;5033276;28;20100;-62
2022/11/08 09:57:05;;;;;;;6.75;0.80;;;17.90;96.80;;;;;;5025747;28;20140;-60
2022/11/08 09:59:45;;;;;;;3.38;0.60;;;18.00;96.80;;;;;;5029969;28;20028;-61
2022/11/08 10:02:22;;;;;;;3.35;0.90;;;18.00;97.00;;;;;;5029776;28;20052;-60
2022/11/08 10:05:14;;;;;;;4.70;1.02;;;18.00;97.00;;;;;;5027075;28;20060;-62
2022/11/08 10:08:09;;;;;;;7.78;1.20;;;18.00;97.20;;;;;;5027795;28;20035;-61
2022/11/08 10:11:05;;;;;;;8.32;1.17;;;18.00;97.30;;;;;;5028864;28;20091;-61
2022/11/08 10:13:55;;;;;;;6.68;1.42;;;18.00;97.30;;;;;;5040075;28;20037;-61
2022/11/08 10:16:44;;;;;;;3.38;1.20;;;18.00;97.40;;;;;;5026424;28;20018;-61
2022/11/08 10:19:43;;;;;;;4.75;0.80;;;18.00;97.50;;;;;;5028322;28;20163;-60
2022/11/08 10:22:28;;;;;;;8.25;1.58;;;18.00;97.50;;;;;;5023406;28;20033;-60
2022/11/08 10:25:01;;;;;;;5.65;1.95;;;18.00;97.50;;;;;;5029719;28;20577;-61
2022/11/08 10:27:33;;;;;;;4.00;0.93;;;17.90;97.80;;;;;;5036710;28;20868;-61
2022/11/08 10:30:09;;;;;;;3.92;0.65;;;17.80;98.00;;;;;;5027179;28;20028;-61
2022/11/08 10:32:37;;;;;;;3.63;0.80;;;17.70;98.10;;;;;;5020408;28;20033;-61
2022/11/08 10:35:35;;;;;;;4.20;0.70;;;17.60;98.50;;;;;;5029640;28;20033;-61
2022/11/08 10:38:13;;;;;;;4.00;1.08;;;17.60;98.50;;;;;;5042642;28;20045;-61
2022/11/08 10:41:00;;;;;;;8.40;0.77;;;17.50;99.10;;;;;;5036169;28;20013;-61
2022/11/08 10:43:44;;;;;;;2.47;0.80;;;17.30;99.50;;;;;;5041192;28;20367;-60
2022/11/08 10:46:29;;;;;;;4.47;0.60;;;17.20;99.80;;;;;;5033684;28;20037;-59
2022/11/08 10:49:07;;;;;;;2.63;0.70;;;17.10;99.80;;;;;;5029310;28;20031;-61
2022/11/08 10:51:34;;;;;;;4.05;0.70;;;17.00;99.90;;;;;;5029867;28;20568;-61
2022/11/08 10:54:01;;;;;;;5.72;0.70;;;16.90;99.90;;;;;;5027955;28;20040;-61
2022/11/08 10:56:28;;;;;;;2.50;0.70;;;16.90;99.90;;;;;;5027980;28;20017;-61
2022/11/08 10:58:56;;;;;;;3.28;0.80;;;16.80;99.90;;;;;;5034808;28;20033;-60
2022/11/08 11:01:25;;;;;;;2.75;1.00;;;16.70;99.90;;;;;;5044724;28;20091;-60
2022/11/08 11:03:53;;;;;;;1.55;0.68;;;16.70;99.90;;;;;;5031852;28;20179;-61
2022/11/08 11:06:32;;;;;;;4.15;0.80;;;16.60;99.90;;;;;;5031797;28;20537;-59
2022/11/08 11:09:26;;;;;;;7.03;0.90;;;16.50;99.90;;;;;;5026904;28;20029;-61
2022/11/08 11:11:58;;;;;;;4.40;0.80;;;16.50;99.90;;;;;;5025183;28;20041;-61
2022/11/08 11:14:26;;;;;;;4.72;0.82;;;16.40;99.90;;;;;;5024802;28;20095;-59
2022/11/08 11:17:08;;;;;;;2.42;0.57;;;16.30;99.90;;;;;;5034242;28;20060;-60
2022/11/08 11:19:35;;;;;;;3.30;0.85;;;16.20;99.90;;;;;;5022557;28;20504;-60
2022/11/08 11:22:05;;;;;;;1.92;0.60;;;16.20;99.90;;;;;;5028148;28;20535;-59
2022/11/08 11:24:35;;;;;;;3.17;0.77;;;16.10;99.90;;;;;;5028436;28;20486;-60
2022/11/08 11:27:17;;;;;;;1.85;0.60;;;16.10;99.90;;;;;;5028853;28;20117;-59
2022/11/08 11:29:44;;;;;;;3.70;0.68;;;16.00;99.90;;;;;;5028651;28;20370;-61
2022/11/08 11:32:33;;;;;;;2.65;0.70;;;15.90;99.90;;;;;;5027525;28;20026;-59
2022/11/08 11:35:06;;;;;;;2.38;0.80;;;15.80;99.90;;;;;;5028163;28;20056;-59
2022/11/08 11:37:45;;;;;;;5.15;0.75;;;15.70;99.90;;;;;;5027576;28;20041;-59
2022/11/08 11:40:26;;;;;;;3.05;0.63;;;15.60;99.90;;;;;;5027314;28;20092;-60
2022/11/08 11:43:05;;;;;;;5.88;0.77;;;15.50;99.90;;;;;;5027588;28;20024;-60
2022/11/08 11:45:44;;;;;;;2.38;1.08;;;15.50;99.90;;;;;;5025132;28;20384;-59
2022/11/08 11:48:35;;;;;;;3.38;0.80;;;15.40;99.90;;;;;;5026335;28;20025;-60
2022/11/08 11:51:02;;;;;;;2.10;0.70;;;15.40;99.90;;;;;;5035073;28;20033;-59
2022/11/08 11:53:35;;;;;;;0.88;0.50;;;15.30;99.90;;;;;;5030684;28;20045;-59
2022/11/08 11:56:21;;;;;;;4.28;0.70;;;15.20;99.90;;;;;;5027794;28;20057;-60
2022/11/08 11:58:55;;;;;;;1.95;0.77;;;15.10;99.90;;;;;;5025056;28;20037;-60
2022/11/08 12:01:28;;;;;;;4.10;0.80;;;15.20;99.90;;;;;;5027287;28;20021;-60
2022/11/08 12:04:23;;;;;;;4.13;0.95;;;15.10;99.90;;;;;;5027241;28;20029;-61
2022/11/08 12:07:04;;;;;;;4.60;0.90;;;15.10;99.90;;;;;;5027183;28;20037;-62
2022/11/08 12:09:34;;;;;;;4.25;0.90;;;15.10;99.90;;;;;;5027223;28;20025;-59
2022/11/08 12:12:09;;;;;;;7.47;0.90;;;15.30;99.90;;;;;;5029981;28;20079;-59
2022/11/08 12:14:36;;;;;;;2.13;0.65;;;15.30;99.90;;;;;;5028522;28;20358;-61
2022/11/08 12:17:29;;;;;;;6.88;0.82;;;15.30;99.90;;;;;;5027382;28;20022;-61
2022/11/08 12:20:29;;;;;;;6.40;0.75;;;15.20;99.90;;;;;;5048502;28;20079;-60
2022/11/08 12:23:08;;;;;;;4.68;1.52;;;15.20;99.90;;;;;;5025484;28;20037;-60
2022/11/08 12:26:22;;;;;;;3.88;1.13;;;15.10;99.90;;;;;;5027635;28;20080;-60
2022/11/08 12:29:17;;;;;;;9.60;1.38;;;15.10;99.90;;;;;;5040685;28;20174;-60
2022/11/08 12:32:19;;;;;;;10.05;0.90;;;15.10;99.90;;;;;;5025186;28;20489;-60
2022/11/08 12:35:31;;;;;;;7.47;0.82;;;15.00;99.90;;;;;;5027328;28;20095;-60
2022/11/08 12:38:11;;;;;;;5.28;0.77;;;14.90;99.90;;;;;;5029974;28;20121;-60
2022/11/08 12:40:41;;;;;;;5.78;0.98;;;14.80;99.90;;;;;;5027666;28;20029;-60
2022/11/08 12:43:16;;;;;;;2.40;0.80;;;14.90;99.90;;;;;;5025767;28;20025;-59
2022/11/08 12:46:08;;;;;;;6.68;1.23;;;14.90;99.90;;;;;;5029466;28;20402;-60
2022/11/08 12:48:48;;;;;;;8.32;1.25;;;15.00;99.90;;;;;;5031149;28;20173;-64
2022/11/08 12:51:34;;;;;;;3.92;0.88;;;14.90;99.90;;;;;;5028867;28;20036;-60
2022/11/08 12:54:17;;;;;;;7.15;1.00;;;15.00;99.90;;;;;;5030455;28;20029;-61
2022/11/08 12:56:47;;;;;;;5.13;0.90;;;14.90;99.90;;;;;;5028843;28;20033;-60
2022/11/08 12:59:32;;;;;;;6.78;1.00;;;14.80;99.90;;;;;;5029253;28;20021;-60
2022/11/08 13:02:02;;;;;;;4.55;0.80;;;14.70;99.90;;;;;;5029191;28;20040;-60
2022/11/08 13:04:35;;;;;;;6.13;1.10;;;14.60;99.90;;;;;;5028604;28;20509;-61
2022/11/08 13:07:35;;;;;;;3.75;0.80;;;14.50;99.90;;;;;;5031113;28;20033;-60
2022/11/08 13:10:08;;;;;;;5.82;0.98;;;14.40;99.90;;;;;;5030176;28;20061;-60
2022/11/08 13:12:48;;;;;;;3.35;0.80;;;14.30;99.90;;;;;;5028945;28;20060;-60
2022/11/08 13:15:23;;;;;;;7.63;0.82;;;14.10;99.90;;;;;;5027760;28;20034;-60
2022/11/08 13:18:09;;;;;;;3.85;0.95;;;14.10;99.90;;;;;;5031200;28;20033;-61
2022/11/08 13:20:43;;;;;;;6.05;1.20;;;13.90;99.90;;;;;;5014904;28;20021;-60
2022/11/08 13:23:31;;;;;;;4.38;0.95;;;13.80;99.90;;;;;;5028707;28;20025;-60
2022/11/08 13:26:25;;;;;;;4.90;1.10;;;13.80;99.90;;;;;;5030284;28;20053;-61
2022/11/08 13:28:53;;;;;;;8.35;2.03;;;13.60;99.90;;;;;;5019038;28;20041;-60
2022/11/08 13:31:23;;;;;;;5.40;0.90;;;13.60;99.90;;;;;;5030357;28;20100;-60
2022/11/08 13:34:02;;;;;;;3.65;0.70;;;13.50;99.90;;;;;;5017029;28;20112;-61